Flemington, New Jersey
Current Conditions -  °F | °C
As of 9:53 AM on Monday 24 Nov 2014 (Local Time) from KSMQ Reporting Station
Overcast Overcast  
Wind Chill: 68°   Ceiling: 2200
Heat Index: 68°   Visibility: 10mi
Dew Point: 60°   Wind: 10mph
Humidity: 76%   Direction: 190°S
Pressure: 29.64"   Gusts: 20mph
Location:  40.51°N, 74.86°W
Report Text: KSMQ 241453Z AUTO 19009G17KT 10SM BKN022 OVC027 20/16 A2964 RMK AO2 SLP038 T02000156 56006
Loading
Personal Weather Stations






























Interactive Weather Map New forecast layout! Learn more

10-Day Weather Forecast

Advertisements
Track Severe Weather on mobile